Strona główna
METAR-TAF:

METAR-TAF

Lotnisko :

Army Air Corps Middle Wallop

Middle Wallop, Anglia

Szerokość geograficzna: 51-09N, Długość geograficzna: 001-34W, wysokość: 91 m

Aktualna obserwacja pogody

Raport powstał 58 minut temu, godzina 07:50 UTC
Wiatr 5 kt od południowy zachód
Temperatura 17°C
Wilgotność 82%
Ciśnienie 1020 hPa
Widzialność 10 km lub więcej

METAR: EGVP 210750Z AUTO 22005KT 9999 // OVC048/// 17/14 Q1020

czas: 09:48 (08:48 UTC)


TAF: brakujący

Obserwacja i prognoza pogody dla ponad 4000 lotnisk (raport METAR i TAF).

Dostępne stacje oznaczono żółtymi i czerwonymi punktami na mapie.

Najedź kursorem aby zobaczyć nazwę stacji.

Kliknij aby zobaczyć obserwacje i prognozy pogody.

Aby zmienić mapę: kliknij na zielony przycisk z czarnym krzyżykiem, aby powiększyć; na zielony przycisk z myślnikiem, aby pomniejszyć; na zielone strzałki, aby przejść do map sąsiednich.


METAR-TAF: